Kilsyth, United Kingdom
Current Conditions -  °F | °C
As of 11:50 PM on Wednesday 28 Jan 2015 (Local Time) from EGPF Reporting Station
Heavy Snow Heavy Snow  
Wind Chill: 21°   Ceiling: 400
Heat Index: 32°   Visibility: 0.25mi
Dew Point: 32°   Wind: 17mph
Humidity: 100%   Direction: 260°W
Pressure: 29.06"   Gusts: NA
Location:  55.98°N, 4.06°W
Report Text: EGPF 282350Z 26015KT 0400 R23/0900 +SN BKN004CB BKN047 00/M00 Q0984 RESHSN
Loading
Personal Weather Stations






























Interactive Weather Map New forecast layout! Learn more

10-Day Weather Forecast

Advertisements
Track Severe Weather on mobile